createdAt,value
2023-04-16T00:00:05.473Z,10.50
2023-04-16T00:00:17.272Z,10.50
2023-04-16T00:00:29.037Z,10.50
2023-04-16T00:00:40.939Z,10.40
2023-04-16T00:00:53.209Z,10.50
2023-04-16T00:01:05.499Z,10.50
2023-04-16T00:01:17.257Z,10.50
2023-04-16T00:01:29.055Z,10.50
2023-04-16T00:01:41.129Z,10.40
2023-04-16T00:01:53.012Z,10.50
2023-04-16T00:02:04.966Z,10.50
2023-04-16T00:02:16.880Z,10.40
2023-04-16T00:02:29.071Z,10.50
2023-04-16T00:02:41.345Z,10.40
2023-04-16T00:02:53.667Z,10.40
2023-04-16T00:03:05.971Z,10.50
2023-04-16T00:03:18.098Z,10.50
2023-04-16T00:03:30.089Z,10.50
2023-04-16T00:03:42.107Z,10.40
2023-04-16T00:03:55.754Z,10.50
2023-04-16T00:04:08.222Z,10.50
2023-04-16T00:04:20.978Z,10.50
2023-04-16T00:04:32.804Z,10.50
2023-04-16T00:04:44.876Z,10.50
2023-04-16T00:04:56.751Z,10.50
2023-04-16T00:05:08.925Z,10.50
2023-04-16T00:05:21.060Z,10.50
2023-04-16T00:05:33.373Z,10.50
2023-04-16T00:05:45.148Z,10.40
2023-04-16T00:05:56.961Z,10.50
2023-04-16T00:06:08.743Z,10.40
2023-04-16T00:06:20.556Z,10.50
2023-04-16T00:06:32.348Z,10.50
2023-04-16T00:06:44.207Z,10.40
2023-04-16T00:06:55.924Z,10.40
2023-04-16T00:07:07.848Z,10.50
2023-04-16T00:07:19.641Z,10.50
2023-04-16T00:07:31.765Z,10.40
2023-04-16T00:07:43.988Z,10.50
2023-04-16T00:07:55.774Z,10.40
2023-04-16T00:08:07.668Z,10.40
2023-04-16T00:08:19.426Z,10.50
2023-04-16T00:08:31.358Z,10.50
2023-04-16T00:08:43.778Z,10.40
2023-04-16T00:08:55.684Z,10.50
2023-04-16T00:09:07.785Z,10.40
2023-04-16T00:09:19.947Z,10.50
2023-04-16T00:09:31.734Z,10.50
2023-04-16T00:09:43.497Z,10.50
2023-04-16T00:09:55.725Z,10.50
2023-04-16T00:10:08.134Z,10.50
2023-04-16T00:10:19.934Z,10.40
2023-04-16T00:10:31.778Z,10.50
2023-04-16T00:10:43.507Z,10.50
2023-04-16T00:10:55.744Z,10.50
2023-04-16T00:11:07.558Z,10.50
2023-04-16T00:11:19.309Z,10.40
2023-04-16T00:11:31.245Z,10.40
2023-04-16T00:11:43.021Z,10.40
2023-04-16T00:11:54.834Z,10.40
2023-04-16T00:12:06.710Z,10.40
2023-04-16T00:12:18.475Z,10.50
2023-04-16T00:12:30.366Z,10.40
2023-04-16T00:12:42.295Z,10.40
2023-04-16T00:12:54.091Z,10.40
2023-04-16T00:13:05.847Z,10.40
2023-04-16T00:13:17.805Z,10.40
2023-04-16T00:13:30.104Z,10.40
2023-04-16T00:13:41.906Z,10.40
2023-04-16T00:13:53.617Z,10.40
2023-04-16T00:14:05.768Z,10.40
2023-04-16T00:14:17.613Z,10.40
2023-04-16T00:14:29.926Z,10.40
2023-04-16T00:14:43.622Z,10.40
2023-04-16T00:14:55.517Z,10.40
2023-04-16T00:15:07.753Z,10.40
2023-04-16T00:15:19.579Z,10.40
2023-04-16T00:15:31.449Z,10.30
2023-04-16T00:15:43.278Z,10.40
2023-04-16T00:15:55.072Z,10.30
2023-04-16T00:16:07.337Z,10.30
2023-04-16T00:16:19.094Z,10.30
2023-04-16T00:16:30.950Z,10.30
2023-04-16T00:16:42.947Z,10.30
2023-04-16T00:16:54.781Z,10.30
2023-04-16T00:17:06.749Z,10.30
2023-04-16T00:17:19.376Z,10.30
2023-04-16T00:17:31.432Z,10.30
2023-04-16T00:17:43.203Z,10.30
2023-04-16T00:17:55.032Z,10.30
2023-04-16T00:18:06.808Z,10.30
2023-04-16T00:18:18.941Z,10.30
2023-04-16T00:18:30.920Z,10.30
2023-04-16T00:18:42.723Z,10.30
2023-04-16T00:18:54.499Z,10.30
2023-04-16T00:19:06.339Z,10.30
2023-04-16T00:19:18.151Z,10.30
2023-04-16T00:19:29.952Z,10.30
2023-04-16T00:19:41.696Z,10.30
2023-04-16T00:19:53.542Z,10.30
2023-04-16T00:20:06.107Z,10.30
2023-04-16T00:20:18.120Z,10.30
2023-04-16T00:20:29.925Z,10.30
2023-04-16T00:20:41.659Z,10.30
2023-04-16T00:20:54.646Z,10.30
2023-04-16T00:21:07.279Z,10.30
2023-04-16T00:21:19.059Z,10.30
2023-04-16T00:21:31.424Z,10.30
2023-04-16T00:21:43.245Z,10.30
2023-04-16T00:21:55.033Z,10.30
2023-04-16T00:22:06.812Z,10.30
2023-04-16T00:22:19.173Z,10.30
2023-04-16T00:22:30.966Z,10.30
2023-04-16T00:22:42.814Z,10.30
2023-04-16T00:22:54.547Z,10.30
2023-04-16T00:23:06.330Z,10.30
2023-04-16T00:23:18.144Z,10.30
2023-04-16T00:23:30.017Z,10.30
2023-04-16T00:23:41.852Z,10.30
2023-04-16T00:23:53.605Z,10.30
2023-04-16T00:24:05.477Z,10.30
2023-04-16T00:24:17.398Z,10.30
2023-04-16T00:24:29.200Z,10.30
2023-04-16T00:24:41.541Z,10.30
2023-04-16T00:24:53.275Z,10.30
2023-04-16T00:25:05.584Z,10.30
2023-04-16T00:25:17.322Z,10.30
2023-04-16T00:25:29.240Z,10.30
2023-04-16T00:25:41.040Z,10.30
2023-04-16T00:25:53.907Z,10.30
2023-04-16T00:26:05.720Z,10.30
2023-04-16T00:26:17.467Z,10.30
2023-04-16T00:26:29.244Z,10.30
2023-04-16T00:26:41.078Z,10.30
2023-04-16T00:26:52.920Z,10.30
2023-04-16T00:27:04.715Z,10.30
2023-04-16T00:27:16.445Z,10.30
2023-04-16T00:27:28.217Z,10.20
2023-04-16T00:27:39.922Z,10.20
2023-04-16T00:27:51.690Z,10.20
2023-04-16T00:28:04.497Z,10.20
2023-04-16T00:28:16.443Z,10.20
2023-04-16T00:28:28.227Z,10.20
2023-04-16T00:28:39.949Z,10.20
2023-04-16T00:28:51.774Z,10.20
2023-04-16T00:29:03.528Z,10.20
2023-04-16T00:29:15.645Z,10.20
2023-04-16T00:29:28.837Z,10.20
2023-04-16T00:29:40.630Z,10.20
2023-04-16T00:29:52.462Z,10.20
2023-04-16T00:30:04.503Z,10.20
2023-04-16T00:30:16.875Z,10.20
2023-04-16T00:30:28.675Z,10.20
2023-04-16T00:30:40.685Z,10.20
2023-04-16T00:30:52.581Z,10.20
2023-04-16T00:31:04.400Z,10.20
2023-04-16T00:31:16.296Z,10.20
2023-04-16T00:31:32.509Z,10.20
2023-04-16T00:31:44.328Z,10.20
2023-04-16T00:31:56.055Z,10.10
2023-04-16T00:32:07.931Z,10.20
2023-04-16T00:32:19.731Z,10.20
2023-04-16T00:32:31.612Z,10.20
2023-04-16T00:32:43.427Z,10.20
2023-04-16T00:32:55.396Z,10.10
2023-04-16T00:33:07.173Z,10.10
2023-04-16T00:33:18.948Z,10.10
2023-04-16T00:33:30.710Z,10.20
2023-04-16T00:33:42.706Z,10.10
2023-04-16T00:33:54.584Z,10.10
2023-04-16T00:34:06.351Z,10.10
2023-04-16T00:34:18.373Z,10.10
2023-04-16T00:34:30.353Z,10.10
2023-04-16T00:34:42.106Z,10.10
2023-04-16T00:34:53.881Z,10.10
2023-04-16T00:35:06.271Z,10.10
2023-04-16T00:35:18.152Z,10.10
2023-04-16T00:35:29.934Z,10.10
2023-04-16T00:35:41.671Z,10.10
2023-04-16T00:35:53.500Z,10.10
2023-04-16T00:36:05.667Z,10.10
2023-04-16T00:36:17.628Z,10.10
2023-04-16T00:36:29.515Z,10.10
2023-04-16T00:36:41.268Z,10.10
2023-04-16T00:36:53.028Z,10.10
2023-04-16T00:37:04.857Z,10.10
2023-04-16T00:37:16.883Z,10.10
2023-04-16T00:37:28.719Z,10.10
2023-04-16T00:37:40.620Z,10.10
2023-04-16T00:37:52.461Z,10.10
2023-04-16T00:38:04.194Z,10.10
2023-04-16T00:38:16.206Z,10.10
2023-04-16T00:38:30.403Z,10.10
2023-04-16T00:38:42.177Z,10.10
2023-04-16T00:38:54.439Z,10.10
2023-04-16T00:39:06.417Z,10.10
2023-04-16T00:39:18.211Z,10.10
2023-04-16T00:39:30.184Z,10.10
2023-04-16T00:39:41.986Z,10.10
2023-04-16T00:39:53.932Z,10.00
2023-04-16T00:40:06.411Z,10.10
2023-04-16T00:40:18.215Z,10.00
2023-04-16T00:40:30.178Z,10.00
2023-04-16T00:40:41.941Z,10.10
2023-04-16T00:40:53.906Z,10.00
2023-04-16T00:41:05.985Z,10.00
2023-04-16T00:41:18.065Z,10.00
2023-04-16T00:41:29.782Z,10.00
2023-04-16T00:41:43.318Z,10.00
2023-04-16T00:41:55.174Z,10.00
2023-04-16T00:42:07.063Z,10.00
2023-04-16T00:42:18.770Z,10.00
2023-04-16T00:42:30.506Z,10.10
2023-04-16T00:42:42.332Z,10.00
2023-04-16T00:42:54.061Z,10.00
2023-04-16T00:43:05.812Z,10.00
2023-04-16T00:43:24.895Z,10.00
2023-04-16T00:43:36.661Z,10.00
2023-04-16T00:43:48.716Z,10.00
2023-04-16T00:44:00.492Z,10.10
2023-04-16T00:44:12.417Z,10.10
2023-04-16T00:44:24.187Z,10.10
2023-04-16T00:44:36.113Z,10.00
2023-04-16T00:44:47.873Z,10.10
2023-04-16T00:44:59.657Z,10.10
2023-04-16T00:45:11.838Z,10.00
2023-04-16T00:45:23.611Z,10.10
2023-04-16T00:45:35.473Z,10.00
2023-04-16T00:45:47.402Z,10.00
2023-04-16T00:45:59.274Z,10.00
2023-04-16T00:46:11.149Z,10.00
2023-04-16T00:46:23.662Z,10.00
2023-04-16T00:46:35.645Z,10.00
2023-04-16T00:46:47.547Z,10.00
2023-04-16T00:46:59.592Z,10.00
2023-04-16T00:47:11.357Z,10.00
2023-04-16T00:47:23.211Z,10.00
2023-04-16T00:47:35.033Z,10.00
2023-04-16T00:47:46.980Z,10.00
2023-04-16T00:48:00.454Z,10.00
2023-04-16T00:48:12.478Z,10.00
2023-04-16T00:48:24.392Z,10.00
2023-04-16T00:48:36.547Z,10.00
2023-04-16T00:48:48.335Z,10.00
2023-04-16T00:49:00.180Z,10.00
2023-04-16T00:49:12.416Z,10.00
2023-04-16T00:49:24.699Z,9.90
2023-04-16T00:49:36.474Z,10.00
2023-04-16T00:49:48.222Z,9.90
2023-04-16T00:49:59.983Z,10.00
2023-04-16T00:50:11.804Z,10.00
2023-04-16T00:50:23.574Z,10.00
2023-04-16T00:50:36.460Z,9.90
2023-04-16T00:50:48.538Z,10.00
2023-04-16T00:51:01.712Z,10.00
2023-04-16T00:51:13.389Z,9.90
2023-04-16T00:51:25.113Z,9.90
2023-04-16T00:51:37.055Z,9.90
2023-04-16T00:51:48.918Z,9.90
2023-04-16T00:52:02.701Z,10.00
2023-04-16T00:52:14.469Z,9.90
2023-04-16T00:52:26.356Z,9.90
2023-04-16T00:52:38.628Z,10.00
2023-04-16T00:52:50.467Z,9.90
2023-04-16T00:53:02.338Z,9.90
2023-04-16T00:53:14.905Z,9.90
2023-04-16T00:53:26.709Z,9.90
2023-04-16T00:53:38.561Z,9.90
2023-04-16T00:53:50.437Z,9.90
2023-04-16T00:54:02.192Z,9.90
2023-04-16T00:54:14.020Z,9.90
2023-04-16T00:54:26.140Z,9.90
2023-04-16T00:54:37.837Z,9.90
2023-04-16T00:54:49.569Z,9.90
2023-04-16T00:55:01.373Z,9.90
2023-04-16T00:55:13.550Z,9.90
2023-04-16T00:55:25.364Z,9.90
2023-04-16T00:55:37.228Z,9.90
2023-04-16T00:55:49.101Z,9.90
2023-04-16T00:56:02.570Z,9.90
2023-04-16T00:56:14.408Z,9.90
2023-04-16T00:56:26.785Z,9.90
2023-04-16T00:56:38.579Z,9.90
2023-04-16T00:56:51.072Z,9.90
2023-04-16T00:57:03.185Z,9.90
2023-04-16T00:57:14.972Z,9.90
2023-04-16T00:57:27.197Z,9.90
2023-04-16T00:57:39.813Z,9.90
2023-04-16T00:57:51.571Z,9.90
2023-04-16T00:58:03.660Z,9.90
2023-04-16T00:58:15.908Z,9.90
2023-04-16T00:58:27.873Z,9.90
2023-04-16T00:58:39.983Z,9.90
2023-04-16T00:58:51.758Z,9.90
2023-04-16T00:59:03.575Z,9.80
2023-04-16T00:59:15.486Z,9.80
2023-04-16T00:59:27.548Z,9.80
2023-04-16T00:59:39.314Z,9.80
2023-04-16T00:59:51.285Z,9.80
2023-04-16T01:00:03.146Z,9.90
2023-04-16T01:00:15.565Z,9.90
2023-04-16T01:00:27.366Z,9.80
2023-04-16T01:00:39.096Z,9.90
2023-04-16T01:00:50.928Z,9.80
2023-04-16T01:01:02.731Z,9.80
2023-04-16T01:01:14.683Z,9.90
2023-04-16T01:01:26.559Z,9.90
2023-04-16T01:01:38.485Z,9.90
2023-04-16T01:01:50.441Z,9.90
2023-04-16T01:02:02.378Z,9.90
2023-04-16T01:02:14.802Z,9.90
2023-04-16T01:02:26.804Z,9.90
2023-04-16T01:02:38.811Z,9.90
2023-04-16T01:02:50.860Z,9.90
2023-04-16T01:03:04.299Z,9.90
2023-04-16T01:03:16.202Z,9.90
2023-04-16T01:03:47.456Z,9.90
2023-04-16T01:03:59.505Z,9.90
2023-04-16T01:04:11.528Z,9.90
2023-04-16T01:04:23.576Z,9.90
2023-04-16T01:04:36.232Z,9.90
2023-04-16T01:04:48.292Z,9.90
2023-04-16T01:05:00.854Z,9.90
2023-04-16T01:05:12.573Z,9.90
2023-04-16T01:05:24.317Z,9.90
2023-04-16T01:05:36.883Z,9.90
2023-04-16T01:05:49.479Z,9.90
2023-04-16T01:06:01.326Z,9.90
2023-04-16T01:06:13.409Z,9.90
2023-04-16T01:06:26.048Z,9.90
2023-04-16T01:06:37.762Z,9.90
2023-04-16T01:06:49.538Z,9.90
2023-04-16T01:07:01.458Z,9.90
2023-04-16T01:07:13.250Z,9.90
2023-04-16T01:07:25.003Z,9.90
2023-04-16T01:07:36.876Z,9.90
2023-04-16T01:07:48.650Z,9.90
2023-04-16T01:08:03.483Z,9.90
2023-04-16T01:08:19.011Z,9.90
2023-04-16T01:08:30.741Z,9.90
2023-04-16T01:08:42.660Z,9.90
2023-04-16T01:08:54.425Z,9.90
2023-04-16T01:09:06.290Z,9.90
2023-04-16T01:09:18.277Z,9.90
2023-04-16T01:09:30.097Z,9.90
2023-04-16T01:09:42.034Z,9.90
2023-04-16T01:09:53.814Z,9.90
2023-04-16T01:10:06.196Z,9.90
2023-04-16T01:10:18.122Z,9.90
2023-04-16T01:10:29.853Z,9.90
2023-04-16T01:10:41.600Z,9.90
2023-04-16T01:10:53.392Z,9.90
2023-04-16T01:11:05.368Z,9.90
2023-04-16T01:11:17.256Z,9.90
2023-04-16T01:11:29.068Z,9.90
2023-04-16T01:11:40.838Z,9.90
2023-04-16T01:11:52.595Z,9.80
2023-04-16T01:12:04.520Z,9.80
2023-04-16T01:12:16.390Z,9.80
2023-04-16T01:12:28.148Z,9.80
2023-04-16T01:12:40.059Z,9.80
2023-04-16T01:12:51.958Z,9.80
2023-04-16T01:13:03.674Z,9.80
2023-04-16T01:13:15.436Z,9.80
2023-04-16T01:13:27.339Z,9.80
2023-04-16T01:13:39.712Z,9.80
2023-04-16T01:13:51.691Z,9.80
2023-04-16T01:14:03.623Z,9.80
2023-04-16T01:14:15.600Z,9.80
2023-04-16T01:14:27.404Z,9.80
2023-04-16T01:14:39.284Z,9.80
2023-04-16T01:14:51.188Z,9.80
2023-04-16T01:15:03.085Z,9.90
2023-04-16T01:15:15.008Z,9.80
2023-04-16T01:15:26.823Z,9.80
2023-04-16T01:15:38.675Z,9.80
2023-04-16T01:15:50.577Z,9.80
2023-04-16T01:16:02.648Z,9.80
2023-04-16T01:16:14.767Z,9.80
2023-04-16T01:16:26.927Z,9.80
2023-04-16T01:16:38.856Z,9.80
2023-04-16T01:16:50.566Z,9.80
2023-04-16T01:17:03.571Z,9.80
2023-04-16T01:17:15.354Z,9.80
2023-04-16T01:17:27.171Z,9.80
2023-04-16T01:17:38.937Z,9.80
2023-04-16T01:17:51.006Z,9.80
2023-04-16T01:18:03.100Z,9.80
2023-04-16T01:18:19.076Z,9.80
2023-04-16T01:18:30.961Z,9.80
2023-04-16T01:18:42.820Z,9.80
2023-04-16T01:18:54.590Z,9.80
2023-04-16T01:19:06.300Z,9.80
2023-04-16T01:19:18.062Z,9.80
2023-04-16T01:19:36.415Z,9.80
2023-04-16T01:19:48.255Z,9.80
2023-04-16T01:20:00.514Z,9.80
2023-04-16T01:20:12.333Z,9.80
2023-04-16T01:20:24.556Z,9.80
2023-04-16T01:20:36.360Z,9.80
2023-04-16T01:20:48.972Z,9.80
2023-04-16T01:21:00.980Z,9.80
2023-04-16T01:21:12.809Z,9.80
2023-04-16T01:21:24.546Z,9.80
2023-04-16T01:21:36.360Z,9.80
2023-04-16T01:21:48.127Z,9.80
2023-04-16T01:21:59.965Z,9.80
2023-04-16T01:22:11.739Z,9.80
2023-04-16T01:22:23.514Z,9.80
2023-04-16T01:22:35.381Z,9.80
2023-04-16T01:22:47.182Z,9.80
2023-04-16T01:22:58.969Z,9.80
2023-04-16T01:23:11.539Z,9.80
2023-04-16T01:23:23.384Z,9.80
2023-04-16T01:23:35.151Z,9.80
2023-04-16T01:23:46.903Z,9.80
2023-04-16T01:24:02.878Z,9.80
2023-04-16T01:24:14.611Z,9.80
2023-04-16T01:24:27.365Z,9.70
2023-04-16T01:24:39.688Z,9.80
2023-04-16T01:24:51.528Z,9.80
2023-04-16T01:25:03.491Z,9.80
2023-04-16T01:25:15.968Z,9.80
2023-04-16T01:25:27.771Z,9.70
2023-04-16T01:25:39.696Z,9.70
2023-04-16T01:25:51.484Z,9.70
2023-04-16T01:26:03.345Z,9.70
2023-04-16T01:26:15.539Z,9.70
2023-04-16T01:26:27.245Z,9.70
2023-04-16T01:26:39.012Z,9.70
2023-04-16T01:26:50.880Z,9.70
2023-04-16T01:27:02.672Z,9.70
2023-04-16T01:27:14.490Z,9.70
2023-04-16T01:27:27.365Z,9.70
2023-04-16T01:27:39.208Z,9.70
2023-04-16T01:27:51.101Z,9.70
2023-04-16T01:28:02.936Z,9.70
2023-04-16T01:28:14.697Z,9.70
2023-04-16T01:28:26.515Z,9.70
2023-04-16T01:28:38.258Z,9.70
2023-04-16T01:28:49.985Z,9.70
2023-04-16T01:29:02.656Z,9.70
2023-04-16T01:29:14.420Z,9.70
2023-04-16T01:29:26.568Z,9.70
2023-04-16T01:29:38.349Z,9.70
2023-04-16T01:29:50.186Z,9.70
2023-04-16T01:30:02.039Z,9.70
2023-04-16T01:30:13.782Z,9.60
2023-04-16T01:30:25.844Z,9.70
2023-04-16T01:30:37.671Z,9.70
2023-04-16T01:30:49.447Z,9.70
2023-04-16T01:31:01.392Z,9.70
2023-04-16T01:31:13.261Z,9.60
2023-04-16T01:31:25.128Z,9.70
2023-04-16T01:31:36.979Z,9.70
2023-04-16T01:31:48.810Z,9.70
2023-04-16T01:32:00.720Z,9.60
2023-04-16T01:32:12.451Z,9.60
2023-04-16T01:32:24.284Z,9.70
2023-04-16T01:32:36.152Z,9.60
2023-04-16T01:32:48.061Z,9.70
2023-04-16T01:33:00.079Z,9.60
2023-04-16T01:33:12.312Z,9.60
2023-04-16T01:33:24.056Z,9.60
2023-04-16T01:33:35.842Z,9.60
2023-04-16T01:33:47.610Z,9.60
2023-04-16T01:33:59.456Z,9.60
2023-04-16T01:34:11.343Z,9.60
2023-04-16T01:34:23.260Z,9.60
2023-04-16T01:34:35.008Z,9.60
2023-04-16T01:34:46.787Z,9.60
2023-04-16T01:34:58.639Z,9.60
2023-04-16T01:35:10.495Z,9.60
2023-04-16T01:35:22.262Z,9.60
2023-04-16T01:35:34.119Z,9.60
2023-04-16T01:35:46.039Z,9.60
2023-04-16T01:35:57.789Z,9.60
2023-04-16T01:36:09.557Z,9.60
2023-04-16T01:36:21.409Z,9.60
2023-04-16T01:36:33.171Z,9.60
2023-04-16T01:36:45.226Z,9.60
2023-04-16T01:36:57.151Z,9.60
2023-04-16T01:37:08.972Z,9.60
2023-04-16T01:37:20.877Z,9.60
2023-04-16T01:37:32.748Z,9.60
2023-04-16T01:37:44.725Z,9.60
2023-04-16T01:37:56.567Z,9.60
2023-04-16T01:38:08.849Z,9.60
2023-04-16T01:38:20.620Z,9.60
2023-04-16T01:38:32.436Z,9.60
2023-04-16T01:38:44.228Z,9.60
2023-04-16T01:38:56.046Z,9.60
2023-04-16T01:39:09.703Z,9.60
2023-04-16T01:39:21.859Z,9.60
2023-04-16T01:39:33.622Z,9.60
2023-04-16T01:39:45.388Z,9.60
2023-04-16T01:39:57.201Z,9.60
2023-04-16T01:40:09.344Z,9.60
2023-04-16T01:40:21.213Z,9.50
2023-04-16T01:40:32.918Z,9.60
2023-04-16T01:40:44.705Z,9.60
2023-04-16T01:40:57.812Z,9.60
2023-04-16T01:41:09.569Z,9.60
2023-04-16T01:41:21.346Z,9.60
2023-04-16T01:41:33.146Z,9.60
2023-04-16T01:41:45.013Z,9.50
2023-04-16T01:41:57.146Z,9.50
2023-04-16T01:42:08.957Z,9.60
2023-04-16T01:42:20.790Z,9.50
2023-04-16T01:42:32.594Z,9.60
2023-04-16T01:42:44.385Z,9.50
2023-04-16T01:42:56.195Z,9.60
2023-04-16T01:43:08.136Z,9.60
2023-04-16T01:43:19.899Z,9.60
2023-04-16T01:43:31.697Z,9.60
2023-04-16T01:43:43.425Z,9.60
2023-04-16T01:43:55.356Z,9.60
2023-04-16T01:44:07.159Z,9.60
2023-04-16T01:44:18.911Z,9.60
2023-04-16T01:44:31.068Z,9.60
2023-04-16T01:44:42.857Z,9.60
2023-04-16T01:44:54.671Z,9.60
2023-04-16T01:45:07.160Z,9.60
2023-04-16T01:45:18.985Z,9.60
2023-04-16T01:45:33.758Z,9.60
2023-04-16T01:45:45.612Z,9.60
2023-04-16T01:46:11.682Z,9.60
2023-04-16T01:46:31.155Z,9.60
2023-04-16T01:46:42.967Z,9.60
2023-04-16T01:46:54.878Z,9.60
2023-04-16T01:47:07.089Z,9.50
2023-04-16T01:47:18.949Z,9.60
2023-04-16T01:47:31.304Z,9.60
2023-04-16T01:47:43.188Z,9.60
2023-04-16T01:47:54.996Z,9.60
2023-04-16T01:48:07.134Z,9.60
2023-04-16T01:48:18.882Z,9.60
2023-04-16T01:48:30.697Z,9.60
2023-04-16T01:48:42.782Z,9.60
2023-04-16T01:48:54.959Z,9.60
2023-04-16T01:49:07.560Z,9.60
2023-04-16T01:49:19.968Z,9.60
2023-04-16T01:49:31.797Z,9.60
2023-04-16T01:49:45.653Z,9.60
2023-04-16T01:49:57.417Z,9.60
2023-04-16T01:50:09.483Z,9.60
2023-04-16T01:50:21.338Z,9.60
2023-04-16T01:50:33.149Z,9.60
2023-04-16T01:50:44.923Z,9.60
2023-04-16T01:50:56.691Z,9.50
2023-04-16T01:51:08.488Z,9.60
2023-04-16T01:51:20.752Z,9.60
2023-04-16T01:51:32.899Z,9.60
2023-04-16T01:51:44.642Z,9.60
2023-04-16T01:51:56.444Z,9.60
2023-04-16T01:52:08.779Z,9.60
2023-04-16T01:52:21.205Z,9.60
2023-04-16T01:52:32.941Z,9.60
2023-04-16T01:52:44.750Z,9.60
2023-04-16T01:52:56.636Z,9.60
2023-04-16T01:53:09.679Z,9.60
2023-04-16T01:53:21.485Z,9.60
2023-04-16T01:53:34.717Z,9.60
2023-04-16T01:53:49.423Z,9.60
2023-04-16T01:54:01.306Z,9.60
2023-04-16T01:54:13.102Z,9.60
2023-04-16T01:54:25.665Z,9.60
2023-04-16T01:54:37.454Z,9.60
2023-04-16T01:54:49.230Z,9.60
2023-04-16T01:55:00.978Z,9.60
2023-04-16T01:55:13.024Z,9.60
2023-04-16T01:55:25.009Z,9.60
2023-04-16T01:55:36.956Z,9.60
2023-04-16T01:55:48.806Z,9.60
2023-04-16T01:56:00.712Z,9.60
2023-04-16T01:56:12.485Z,9.60
2023-04-16T01:56:24.354Z,9.60
2023-04-16T01:56:36.114Z,9.60
2023-04-16T01:56:47.999Z,9.60
2023-04-16T01:56:59.794Z,9.60
2023-04-16T01:57:11.604Z,9.60
2023-04-16T01:57:23.428Z,9.60
2023-04-16T01:57:35.236Z,9.60
2023-04-16T01:57:47.063Z,9.60
2023-04-16T01:57:58.846Z,9.60
2023-04-16T01:58:11.052Z,9.60
2023-04-16T01:58:22.881Z,9.60
2023-04-16T01:58:34.721Z,9.60
2023-04-16T01:58:47.382Z,9.60
2023-04-16T01:58:59.183Z,9.60
2023-04-16T01:59:11.530Z,9.60
2023-04-16T01:59:23.436Z,9.60
2023-04-16T01:59:35.312Z,9.60
2023-04-16T01:59:47.086Z,9.50
2023-04-16T01:59:58.894Z,9.50
2023-04-16T02:00:11.433Z,9.50
2023-04-16T02:00:23.185Z,9.50
2023-04-16T02:00:34.992Z,9.50
2023-04-16T02:00:46.802Z,9.60
2023-04-16T02:00:58.985Z,9.50
2023-04-16T02:01:10.960Z,9.50
2023-04-16T02:01:23.017Z,9.50
2023-04-16T02:01:34.968Z,9.50
2023-04-16T02:01:47.054Z,9.50
2023-04-16T02:02:06.752Z,9.50
2023-04-16T02:02:18.619Z,9.50
2023-04-16T02:02:30.791Z,9.50
2023-04-16T02:02:42.809Z,9.50
2023-04-16T02:02:54.978Z,9.50
2023-04-16T02:03:07.056Z,9.60
2023-04-16T02:03:19.040Z,9.60
2023-04-16T02:03:31.390Z,9.60
2023-04-16T02:03:43.445Z,9.50
2023-04-16T02:03:55.426Z,9.50
2023-04-16T02:04:08.237Z,9.60
2023-04-16T02:04:20.151Z,9.60
2023-04-16T02:04:31.912Z,9.50
2023-04-16T02:04:45.490Z,9.50
2023-04-16T02:04:57.531Z,9.50
2023-04-16T02:05:09.315Z,9.50
2023-04-16T02:05:21.177Z,9.50
2023-04-16T02:05:32.923Z,9.50
2023-04-16T02:05:44.726Z,9.50
2023-04-16T02:05:56.478Z,9.50
2023-04-16T02:06:08.273Z,9.50
2023-04-16T02:06:20.116Z,9.50
2023-04-16T02:06:31.965Z,9.50
2023-04-16T02:06:44.607Z,9.50
2023-04-16T02:06:56.385Z,9.50
2023-04-16T02:07:08.259Z,9.50
2023-04-16T02:07:20.025Z,9.50
2023-04-16T02:07:31.853Z,9.50
2023-04-16T02:07:43.668Z,9.50
2023-04-16T02:07:55.429Z,9.50
2023-04-16T02:08:07.195Z,9.50
2023-04-16T02:08:19.038Z,9.50
2023-04-16T02:08:30.798Z,9.50
2023-04-16T02:08:43.243Z,9.50
2023-04-16T02:08:55.036Z,9.50
2023-04-16T02:09:07.516Z,9.50
2023-04-16T02:09:19.414Z,9.50
2023-04-16T02:09:31.506Z,9.50
2023-04-16T02:09:43.334Z,9.50
2023-04-16T02:09:55.308Z,9.50
2023-04-16T02:10:08.919Z,9.50
2023-04-16T02:10:20.842Z,9.50
2023-04-16T02:10:32.566Z,9.50
2023-04-16T02:10:47.813Z,9.50
2023-04-16T02:11:01.010Z,9.50
2023-04-16T02:11:12.837Z,9.50
2023-04-16T02:11:24.665Z,9.50
2023-04-16T02:11:36.480Z,9.50
2023-04-16T02:11:48.364Z,9.50
2023-04-16T02:12:00.197Z,9.50
2023-04-16T02:12:12.007Z,9.50
2023-04-16T02:12:23.867Z,9.50
2023-04-16T02:12:35.691Z,9.50
2023-04-16T02:12:47.720Z,9.50
2023-04-16T02:12:59.641Z,9.50
2023-04-16T02:13:11.582Z,9.50
2023-04-16T02:13:23.510Z,9.40
2023-04-16T02:13:35.341Z,9.50
2023-04-16T02:13:47.066Z,9.50
2023-04-16T02:13:58.869Z,9.40
2023-04-16T02:14:10.653Z,9.50
2023-04-16T02:14:25.483Z,9.50
2023-04-16T02:14:37.346Z,9.50
2023-04-16T02:14:49.321Z,9.50
2023-04-16T02:15:01.180Z,9.50
2023-04-16T02:15:12.997Z,9.40
2023-04-16T02:15:25.325Z,9.40
2023-04-16T02:15:37.104Z,9.50
2023-04-16T02:15:50.420Z,9.40
2023-04-16T02:16:02.744Z,9.40
2023-04-16T02:16:14.712Z,9.40
2023-04-16T02:16:26.612Z,9.40
2023-04-16T02:16:38.401Z,9.40
2023-04-16T02:16:50.459Z,9.40
2023-04-16T02:17:02.303Z,9.40
2023-04-16T02:17:15.353Z,9.40
2023-04-16T02:17:27.141Z,9.40
2023-04-16T02:17:39.138Z,9.40
2023-04-16T02:17:55.096Z,9.40
2023-04-16T02:18:06.942Z,9.40
2023-04-16T02:18:18.877Z,9.30
2023-04-16T02:18:30.656Z,9.30
2023-04-16T02:18:42.456Z,9.40
2023-04-16T02:18:54.159Z,9.30
2023-04-16T02:19:06.078Z,9.30
2023-04-16T02:19:18.092Z,9.30
2023-04-16T02:19:29.888Z,9.30
2023-04-16T02:19:41.802Z,9.30
2023-04-16T02:19:53.562Z,9.30
2023-04-16T02:20:08.184Z,9.30
2023-04-16T02:20:19.934Z,9.30
2023-04-16T02:20:31.647Z,9.30
2023-04-16T02:20:44.391Z,9.30
2023-04-16T02:20:57.907Z,9.30
2023-04-16T02:21:09.710Z,9.30
2023-04-16T02:21:21.515Z,9.40
2023-04-16T02:21:49.076Z,9.30
2023-04-16T02:22:01.728Z,9.30
2023-04-16T02:22:13.489Z,9.40
2023-04-16T02:22:25.397Z,9.30
2023-04-16T02:22:37.208Z,9.30
2023-04-16T02:22:49.010Z,9.40
2023-04-16T02:23:00.874Z,9.40
2023-04-16T02:23:15.047Z,9.40
2023-04-16T02:23:26.903Z,9.40
2023-04-16T02:23:41.127Z,9.30
2023-04-16T02:23:52.992Z,9.40
2023-04-16T02:24:05.050Z,9.40
2023-04-16T02:24:16.869Z,9.40
2023-04-16T02:24:28.607Z,9.30
2023-04-16T02:24:40.421Z,9.30
2023-04-16T02:24:52.159Z,9.30
2023-04-16T02:25:04.187Z,9.30
2023-04-16T02:25:16.038Z,9.30
2023-04-16T02:25:27.820Z,9.40
2023-04-16T02:25:41.298Z,9.30
2023-04-16T02:25:53.164Z,9.30
2023-04-16T02:26:05.098Z,9.30
2023-04-16T02:26:17.154Z,9.30
2023-04-16T02:26:29.825Z,9.30
2023-04-16T02:26:41.646Z,9.30
2023-04-16T02:26:53.739Z,9.30
2023-04-16T02:27:05.702Z,9.30
2023-04-16T02:27:17.542Z,9.30
2023-04-16T02:27:29.287Z,9.30
2023-04-16T02:27:41.036Z,9.30
2023-04-16T02:27:52.743Z,9.30
2023-04-16T02:28:04.658Z,9.30
2023-04-16T02:28:17.130Z,9.30
2023-04-16T02:28:28.910Z,9.30
2023-04-16T02:28:40.677Z,9.30
2023-04-16T02:28:52.628Z,9.30
2023-04-16T02:29:04.486Z,9.30
2023-04-16T02:29:16.593Z,9.30
2023-04-16T02:29:28.587Z,9.30
2023-04-16T02:29:40.653Z,9.30
2023-04-16T02:29:52.477Z,9.30
2023-04-16T02:30:04.641Z,9.30
2023-04-16T02:30:16.600Z,9.30
2023-04-16T02:30:28.360Z,9.30
2023-04-16T02:30:40.480Z,9.30
2023-04-16T02:30:52.282Z,9.30
2023-04-16T02:31:04.245Z,9.30
2023-04-16T02:31:19.459Z,9.30
2023-04-16T02:31:31.869Z,9.30
2023-04-16T02:31:44.692Z,9.30
2023-04-16T02:31:56.567Z,9.30
2023-04-16T02:32:08.574Z,9.30
2023-04-16T02:32:20.840Z,9.30
2023-04-16T02:32:32.715Z,9.30
2023-04-16T02:32:44.528Z,9.30
2023-04-16T02:32:56.467Z,9.30
2023-04-16T02:33:10.561Z,9.30
2023-04-16T02:33:22.625Z,9.30
2023-04-16T02:33:35.928Z,9.30
2023-04-16T02:33:47.800Z,9.30
2023-04-16T02:33:59.566Z,9.30
2023-04-16T02:34:11.486Z,9.30
2023-04-16T02:34:23.222Z,9.30
2023-04-16T02:34:35.684Z,9.30
2023-04-16T02:34:47.583Z,9.30
2023-04-16T02:34:59.398Z,9.30
2023-04-16T02:35:11.212Z,9.30
2023-04-16T02:35:22.957Z,9.30
2023-04-16T02:35:35.160Z,9.30
2023-04-16T02:35:48.699Z,9.30
2023-04-16T02:36:00.507Z,9.30
2023-04-16T02:36:12.911Z,9.20
2023-04-16T02:36:24.672Z,9.20
2023-04-16T02:36:36.525Z,9.20
2023-04-16T02:36:48.357Z,9.20
2023-04-16T02:37:00.477Z,9.20
2023-04-16T02:37:12.187Z,9.20
2023-04-16T02:37:25.068Z,9.20
2023-04-16T02:37:37.026Z,9.10
2023-04-16T02:37:48.860Z,9.20
2023-04-16T02:38:01.051Z,9.10
2023-04-16T02:38:12.902Z,9.10
2023-04-16T02:38:24.713Z,9.10
2023-04-16T02:38:37.527Z,9.10
2023-04-16T02:38:49.360Z,9.10
2023-04-16T02:39:01.060Z,9.10
2023-04-16T02:39:12.786Z,9.10
2023-04-16T02:39:24.563Z,9.10
2023-04-16T02:39:36.393Z,9.10
2023-04-16T02:39:49.896Z,9.10
2023-04-16T02:40:01.730Z,9.10